sensor_id;sensor_type;location;lat;lon;timestamp;pressure;altitude;pressure_sealevel;temperature;humidity
7834;BME280;3962;42.696;23.354;2023-03-01T00:01:27;95674.53;;;6.25;98.78
7834;BME280;3962;42.696;23.354;2023-03-01T00:03:56;95659.78;;;6.22;98.20
7834;BME280;3962;42.696;23.354;2023-03-01T00:06:24;95661.56;;;6.22;97.95
7834;BME280;3962;42.696;23.354;2023-03-01T00:08:50;95660.34;;;6.15;98.66
7834;BME280;3962;42.696;23.354;2023-03-01T00:11:20;95656.88;;;6.14;98.11
7834;BME280;3962;42.696;23.354;2023-03-01T00:13:49;95658.66;;;6.14;98.00
7834;BME280;3962;42.696;23.354;2023-03-01T00:16:18;95659.84;;;6.10;97.70
7834;BME280;3962;42.696;23.354;2023-03-01T00:18:45;95657.94;;;6.12;97.46
7834;BME280;3962;42.696;23.354;2023-03-01T00:21:14;95657.31;;;6.08;96.83
7834;BME280;3962;42.696;23.354;2023-03-01T00:23:41;95648.75;;;6.05;96.67
7834;BME280;3962;42.696;23.354;2023-03-01T00:26:10;95640.59;;;6.08;97.96
7834;BME280;3962;42.696;23.354;2023-03-01T00:28:37;95646.13;;;6.05;98.18
7834;BME280;3962;42.696;23.354;2023-03-01T00:31:04;95635.66;;;6.03;96.97
7834;BME280;3962;42.696;23.354;2023-03-01T00:33:31;95630.59;;;6.00;98.05
7834;BME280;3962;42.696;23.354;2023-03-01T00:35:58;95631.03;;;5.94;97.14
7834;BME280;3962;42.696;23.354;2023-03-01T00:38:26;95630.31;;;5.92;97.77
7834;BME280;3962;42.696;23.354;2023-03-01T00:40:53;95633.06;;;5.91;97.64
7834;BME280;3962;42.696;23.354;2023-03-01T00:43:20;95623.69;;;5.87;97.74
7834;BME280;3962;42.696;23.354;2023-03-01T00:45:47;95619.75;;;5.92;97.59
7834;BME280;3962;42.696;23.354;2023-03-01T00:48:14;95622.84;;;5.86;98.77
7834;BME280;3962;42.696;23.354;2023-03-01T00:50:41;95620.19;;;5.86;98.47
7834;BME280;3962;42.696;23.354;2023-03-01T00:53:08;95622.13;;;5.84;98.34
7834;BME280;3962;42.696;23.354;2023-03-01T00:55:36;95628.97;;;5.87;98.83
7834;BME280;3962;42.696;23.354;2023-03-01T00:58:03;95630.75;;;5.86;98.20
7834;BME280;3962;42.696;23.354;2023-03-01T01:00:30;95622.13;;;5.84;97.64
7834;BME280;3962;42.696;23.354;2023-03-01T01:02:56;95620.44;;;5.83;98.96
7834;BME280;3962;42.696;23.354;2023-03-01T01:05:23;95621.06;;;5.87;97.41
7834;BME280;3962;42.696;23.354;2023-03-01T01:07:50;95625.38;;;5.88;97.83
7834;BME280;3962;42.696;23.354;2023-03-01T01:10:17;95631.38;;;5.90;97.66
7834;BME280;3962;42.696;23.354;2023-03-01T01:12:46;95622.84;;;5.86;96.99
7834;BME280;3962;42.696;23.354;2023-03-01T01:15:13;95623.69;;;5.87;97.76
7834;BME280;3962;42.696;23.354;2023-03-01T01:17:41;95632.22;;;5.90;97.66
7834;BME280;3962;42.696;23.354;2023-03-01T01:20:09;95632.34;;;5.89;96.92
7834;BME280;3962;42.696;23.354;2023-03-01T01:22:36;95630.53;;;5.89;97.44
7834;BME280;3962;42.696;23.354;2023-03-01T01:25:03;95622.50;;;5.91;97.16
7834;BME280;3962;42.696;23.354;2023-03-01T01:27:30;95619.53;;;5.95;97.23
7834;BME280;3962;42.696;23.354;2023-03-01T01:29:59;95621.22;;;5.96;96.97
7834;BME280;3962;42.696;23.354;2023-03-01T01:32:25;95623.63;;;5.99;95.89
7834;BME280;3962;42.696;23.354;2023-03-01T01:34:52;95623.84;;;5.96;95.82
7834;BME280;3962;42.696;23.354;2023-03-01T01:37:19;95631.78;;;5.96;95.79
7834;BME280;3962;42.696;23.354;2023-03-01T01:39:46;95630.81;;;5.97;94.53
7834;BME280;3962;42.696;23.354;2023-03-01T01:42:15;95633.44;;;5.97;95.11
7834;BME280;3962;42.696;23.354;2023-03-01T01:44:46;95643.81;;;6.00;94.61
7834;BME280;3962;42.696;23.354;2023-03-01T01:47:16;95641.03;;;6.02;95.12
7834;BME280;3962;42.696;23.354;2023-03-01T01:49:47;95635.44;;;6.06;94.59
7834;BME280;3962;42.696;23.354;2023-03-01T01:52:18;95639.97;;;6.04;95.12
7834;BME280;3962;42.696;23.354;2023-03-01T01:54:50;95628.69;;;6.02;94.37
7834;BME280;3962;42.696;23.354;2023-03-01T01:57:22;95624.88;;;6.06;94.10
7834;BME280;3962;42.696;23.354;2023-03-01T01:59:53;95627.91;;;6.13;92.86
7834;BME280;3962;42.696;23.354;2023-03-01T02:02:22;95626.84;;;6.15;93.06
7834;BME280;3962;42.696;23.354;2023-03-01T02:04:52;95617.25;;;6.14;92.29
7834;BME280;3962;42.696;23.354;2023-03-01T02:07:23;95621.31;;;6.18;92.74
7834;BME280;3962;42.696;23.354;2023-03-01T02:09:52;95615.31;;;6.16;91.54
7834;BME280;3962;42.696;23.354;2023-03-01T02:12:20;95617.00;;;6.17;91.28
7834;BME280;3962;42.696;23.354;2023-03-01T02:14:48;95609.06;;;6.17;91.51
7834;BME280;3962;42.696;23.354;2023-03-01T02:17:17;95608.72;;;6.22;90.83
7834;BME280;3962;42.696;23.354;2023-03-01T02:19:54;95605.38;;;6.20;91.13
7834;BME280;3962;42.696;23.354;2023-03-01T02:22:29;95606.34;;;6.19;90.56
7834;BME280;3962;42.696;23.354;2023-03-01T02:25:06;95608.13;;;6.18;90.99
7834;BME280;3962;42.696;23.354;2023-03-01T02:27:42;95610.72;;;6.07;90.69
7834;BME280;3962;42.696;23.354;2023-03-01T02:30:13;95606.16;;;6.09;91.07
7834;BME280;3962;42.696;23.354;2023-03-01T02:32:40;95608.19;;;6.06;91.75
7834;BME280;3962;42.696;23.354;2023-03-01T02:35:09;95611.97;;;6.02;93.12
7834;BME280;3962;42.696;23.354;2023-03-01T02:37:38;95617.59;;;5.97;93.98
7834;BME280;3962;42.696;23.354;2023-03-01T02:40:08;95615.94;;;5.96;93.76
7834;BME280;3962;42.696;23.354;2023-03-01T02:42:43;95621.44;;;5.93;93.58
7834;BME280;3962;42.696;23.354;2023-03-01T02:45:13;95619.53;;;5.95;93.88
7834;BME280;3962;42.696;23.354;2023-03-01T02:47:40;95620.09;;;5.88;94.15
7834;BME280;3962;42.696;23.354;2023-03-01T02:50:16;95619.03;;;5.90;95.30
7834;BME280;3962;42.696;23.354;2023-03-01T02:52:56;95608.56;;;5.89;94.89
7834;BME280;3962;42.696;23.354;2023-03-01T02:55:25;95611.94;;;5.91;94.86
7834;BME280;3962;42.696;23.354;2023-03-01T02:57:53;95612.38;;;5.85;94.89
7834;BME280;3962;42.696;23.354;2023-03-01T03:00:26;95615.44;;;5.91;94.34
7834;BME280;3962;42.696;23.354;2023-03-01T03:02:54;95611.31;;;5.87;94.22
7834;BME280;3962;42.696;23.354;2023-03-01T03:05:24;95614.56;;;5.91;95.00
7834;BME280;3962;42.696;23.354;2023-03-01T03:07:51;95622.88;;;5.97;94.81
7834;BME280;3962;42.696;23.354;2023-03-01T03:10:21;95606.31;;;5.95;93.73
7834;BME280;3962;42.696;23.354;2023-03-01T03:12:52;95599.78;;;5.88;94.42
7834;BME280;3962;42.696;23.354;2023-03-01T03:15:20;95610.59;;;5.85;93.80
7834;BME280;3962;42.696;23.354;2023-03-01T03:17:50;95616.94;;;5.83;93.89
7834;BME280;3962;42.696;23.354;2023-03-01T03:20:19;95602.25;;;5.79;94.20
7834;BME280;3962;42.696;23.354;2023-03-01T03:22:48;95617.88;;;5.82;94.60
7834;BME280;3962;42.696;23.354;2023-03-01T03:25:15;95622.13;;;5.84;94.69
7834;BME280;3962;42.696;23.354;2023-03-01T03:27:44;95617.03;;;5.81;94.08
7834;BME280;3962;42.696;23.354;2023-03-01T03:30:14;95623.56;;;5.76;94.33
7834;BME280;3962;42.696;23.354;2023-03-01T03:32:45;95619.16;;;5.76;95.26
7834;BME280;3962;42.696;23.354;2023-03-01T03:35:20;95625.25;;;5.77;95.40
7834;BME280;3962;42.696;23.354;2023-03-01T03:37:47;95623.91;;;5.71;95.11
7834;BME280;3962;42.696;23.354;2023-03-01T03:40:30;95624.97;;;5.69;94.73
7834;BME280;3962;42.696;23.354;2023-03-01T03:42:58;95620.31;;;5.72;95.21
7834;BME280;3962;42.696;23.354;2023-03-01T03:45:25;95627.50;;;5.70;95.75
7834;BME280;3962;42.696;23.354;2023-03-01T03:47:52;95634.22;;;5.74;94.54
7834;BME280;3962;42.696;23.354;2023-03-01T03:50:20;95635.09;;;5.75;94.85
7834;BME280;3962;42.696;23.354;2023-03-01T03:52:47;95633.50;;;5.72;94.58
7834;BME280;3962;42.696;23.354;2023-03-01T03:55:13;95636.28;;;5.71;94.74
7834;BME280;3962;42.696;23.354;2023-03-01T03:57:46;95637.00;;;5.73;94.88
7834;BME280;3962;42.696;23.354;2023-03-01T04:00:18;95630.75;;;5.74;94.70
7834;BME280;3962;42.696;23.354;2023-03-01T04:02:46;95630.03;;;5.72;95.12
7834;BME280;3962;42.696;23.354;2023-03-01T04:05:14;95629.75;;;5.64;95.69
7834;BME280;3962;42.696;23.354;2023-03-01T04:07:43;95634.16;;;5.63;95.35
7834;BME280;3962;42.696;23.354;2023-03-01T04:10:11;95637.53;;;5.65;95.90
7834;BME280;3962;42.696;23.354;2023-03-01T04:12:39;95633.09;;;5.66;96.01
7834;BME280;3962;42.696;23.354;2023-03-01T04:15:07;95639.75;;;5.71;96.28
7834;BME280;3962;42.696;23.354;2023-03-01T04:17:39;95642.72;;;5.67;96.02
7834;BME280;3962;42.696;23.354;2023-03-01T04:20:08;95640.81;;;5.69;95.82
7834;BME280;3962;42.696;23.354;2023-03-01T04:22:36;95635.41;;;5.70;94.95
7834;BME280;3962;42.696;23.354;2023-03-01T04:25:06;95634.69;;;5.68;94.76
7834;BME280;3962;42.696;23.354;2023-03-01T04:27:33;95639.34;;;5.65;94.76
7834;BME280;3962;42.696;23.354;2023-03-01T04:30:00;95627.59;;;5.69;94.86
7834;BME280;3962;42.696;23.354;2023-03-01T04:32:27;95637.88;;;5.61;95.16
7834;BME280;3962;42.696;23.354;2023-03-01T04:34:54;95633.78;;;5.57;95.63
7834;BME280;3962;42.696;23.354;2023-03-01T04:37:21;95635.78;;;5.53;95.40
7834;BME280;3962;42.696;23.354;2023-03-01T04:39:49;95641.38;;;5.49;95.44
7834;BME280;3962;42.696;23.354;2023-03-01T04:42:17;95637.78;;;5.50;95.73
7834;BME280;3962;42.696;23.354;2023-03-01T04:44:45;95621.56;;;5.43;95.79
7834;BME280;3962;42.696;23.354;2023-03-01T04:47:12;95623.34;;;5.43;95.83
7834;BME280;3962;42.696;23.354;2023-03-01T04:49:39;95621.34;;;5.46;97.13
7834;BME280;3962;42.696;23.354;2023-03-01T04:52:06;95628.28;;;5.47;95.76
7834;BME280;3962;42.696;23.354;2023-03-01T04:54:34;95623.00;;;5.47;95.49
7834;BME280;3962;42.696;23.354;2023-03-01T04:57:01;95624.50;;;5.51;95.74
7834;BME280;3962;42.696;23.354;2023-03-01T04:59:30;95628.19;;;5.49;96.43
7834;BME280;3962;42.696;23.354;2023-03-01T05:01:57;95627.97;;;5.52;95.89
7834;BME280;3962;42.696;23.354;2023-03-01T05:04:26;95623.75;;;5.49;96.47
7834;BME280;3962;42.696;23.354;2023-03-01T05:06:52;95628.38;;;5.46;95.87
7834;BME280;3962;42.696;23.354;2023-03-01T05:09:20;95625.44;;;5.38;96.56
7834;BME280;3962;42.696;23.354;2023-03-01T05:11:47;95631.16;;;5.44;96.66
7834;BME280;3962;42.696;23.354;2023-03-01T05:14:14;95619.75;;;5.44;96.14
7834;BME280;3962;42.696;23.354;2023-03-01T05:16:42;95624.06;;;5.45;96.85
7834;BME280;3962;42.696;23.354;2023-03-01T05:19:09;95639.38;;;5.52;96.70
7834;BME280;3962;42.696;23.354;2023-03-01T05:21:41;95630.59;;;6.24;99.74
7834;BME280;3962;42.696;23.354;2023-03-01T05:24:22;95643.97;;;7.13;97.06
7834;BME280;3962;42.696;23.354;2023-03-01T05:26:48;95637.56;;;6.25;92.53
7834;BME280;3962;42.696;23.354;2023-03-01T05:29:17;95629.78;;;5.87;93.30
7834;BME280;3962;42.696;23.354;2023-03-01T05:31:52;95624.44;;;5.76;93.62
7834;BME280;3962;42.696;23.354;2023-03-01T05:34:23;95635.97;;;5.63;94.94
7834;BME280;3962;42.696;23.354;2023-03-01T05:36:51;95639.97;;;5.68;94.81
7834;BME280;3962;42.696;23.354;2023-03-01T05:39:19;95627.44;;;5.59;95.73
7834;BME280;3962;42.696;23.354;2023-03-01T05:41:47;95635.03;;;5.64;95.37
7834;BME280;3962;42.696;23.354;2023-03-01T05:44:14;95641.47;;;5.60;95.92
7834;BME280;3962;42.696;23.354;2023-03-01T05:46:41;95637.75;;;5.62;95.84
7834;BME280;3962;42.696;23.354;2023-03-01T05:49:09;95645.13;;;5.70;95.15
7834;BME280;3962;42.696;23.354;2023-03-01T05:51:36;95644.94;;;5.73;95.11
7834;BME280;3962;42.696;23.354;2023-03-01T05:54:03;95644.78;;;5.74;95.40
7834;BME280;3962;42.696;23.354;2023-03-01T05:56:32;95656.63;;;5.69;94.58
7834;BME280;3962;42.696;23.354;2023-03-01T05:58:59;95643.47;;;5.56;95.10
7834;BME280;3962;42.696;23.354;2023-03-01T06:01:26;95661.31;;;5.53;95.63
7834;BME280;3962;42.696;23.354;2023-03-01T06:03:53;95658.91;;;5.50;95.27
7834;BME280;3962;42.696;23.354;2023-03-01T06:06:21;95662.91;;;5.55;95.74
7834;BME280;3962;42.696;23.354;2023-03-01T06:08:49;95657.00;;;5.52;96.18
7834;BME280;3962;42.696;23.354;2023-03-01T06:11:16;95666.91;;;5.61;95.80
7834;BME280;3962;42.696;23.354;2023-03-01T06:13:43;95667.66;;;5.50;95.90
7834;BME280;3962;42.696;23.354;2023-03-01T06:16:10;95670.22;;;5.39;96.92
7834;BME280;3962;42.696;23.354;2023-03-01T06:18:39;95680.84;;;5.38;97.64
7834;BME280;3962;42.696;23.354;2023-03-01T06:21:07;95681.63;;;5.40;97.36
7834;BME280;3962;42.696;23.354;2023-03-01T06:23:36;95689.53;;;5.52;97.02
7834;BME280;3962;42.696;23.354;2023-03-01T06:26:06;95683.06;;;5.56;97.38
7834;BME280;3962;42.696;23.354;2023-03-01T06:28:33;95681.69;;;5.63;96.41
7834;BME280;3962;42.696;23.354;2023-03-01T06:31:00;95680.41;;;5.69;96.03
7834;BME280;3962;42.696;23.354;2023-03-01T06:33:27;95679.13;;;5.74;96.16
7834;BME280;3962;42.696;23.354;2023-03-01T06:35:54;95673.09;;;5.72;95.00
7834;BME280;3962;42.696;23.354;2023-03-01T06:38:21;95677.75;;;5.81;94.03
7834;BME280;3962;42.696;23.354;2023-03-01T06:40:53;95688.94;;;5.85;95.31
7834;BME280;3962;42.696;23.354;2023-03-01T06:43:21;95680.06;;;5.86;93.87
7834;BME280;3962;42.696;23.354;2023-03-01T06:45:48;95677.84;;;5.92;93.93
7834;BME280;3962;42.696;23.354;2023-03-01T06:48:15;95670.75;;;5.93;93.24
7834;BME280;3962;42.696;23.354;2023-03-01T06:50:42;95668.25;;;5.91;93.34
7834;BME280;3962;42.696;23.354;2023-03-01T06:53:09;95668.41;;;6.01;92.35
7834;BME280;3962;42.696;23.354;2023-03-01T06:55:36;95673.06;;;5.97;92.85
7834;BME280;3962;42.696;23.354;2023-03-01T06:58:04;95680.88;;;5.99;92.44
7834;BME280;3962;42.696;23.354;2023-03-01T07:00:32;95678.97;;;6.01;92.13
7834;BME280;3962;42.696;23.354;2023-03-01T07:02:59;95682.03;;;6.07;92.21
7834;BME280;3962;42.696;23.354;2023-03-01T07:05:28;95677.47;;;6.09;92.86
7834;BME280;3962;42.696;23.354;2023-03-01T07:07:54;95681.84;;;6.21;92.91
7834;BME280;3962;42.696;23.354;2023-03-01T07:10:22;95680.97;;;6.10;91.88
7834;BME280;3962;42.696;23.354;2023-03-01T07:12:49;95679.41;;;6.07;92.01
7834;BME280;3962;42.696;23.354;2023-03-01T07:15:17;95675.50;;;6.00;92.84
7834;BME280;3962;42.696;23.354;2023-03-01T07:17:44;95679.09;;;5.99;93.21
7834;BME280;3962;42.696;23.354;2023-03-01T07:20:13;95675.59;;;5.99;93.25
7834;BME280;3962;42.696;23.354;2023-03-01T07:22:40;95676.47;;;5.99;93.55
7834;BME280;3962;42.696;23.354;2023-03-01T07:25:09;95679.22;;;5.98;93.57
7834;BME280;3962;42.696;23.354;2023-03-01T07:27:36;95666.53;;;6.03;93.82
7834;BME280;3962;42.696;23.354;2023-03-01T07:30:04;95673.53;;;6.15;93.02
7834;BME280;3962;42.696;23.354;2023-03-01T07:32:33;95664.03;;;6.12;93.17
7834;BME280;3962;42.696;23.354;2023-03-01T07:35:00;95664.56;;;6.17;92.12
7834;BME280;3962;42.696;23.354;2023-03-01T07:37:26;95665.91;;;6.23;91.79
7834;BME280;3962;42.696;23.354;2023-03-01T07:39:53;95668.63;;;6.34;91.57
7834;BME280;3962;42.696;23.354;2023-03-01T07:42:20;95662.66;;;6.43;90.22
7834;BME280;3962;42.696;23.354;2023-03-01T07:44:47;95668.31;;;6.49;89.66
7834;BME280;3962;42.696;23.354;2023-03-01T07:47:16;95674.16;;;6.65;89.40
7834;BME280;3962;42.696;23.354;2023-03-01T07:49:45;95656.63;;;6.75;88.67
7834;BME280;3962;42.696;23.354;2023-03-01T07:52:14;95654.22;;;6.72;87.96
7834;BME280;3962;42.696;23.354;2023-03-01T07:54:42;95657.13;;;6.80;87.77
7834;BME280;3962;42.696;23.354;2023-03-01T07:57:11;95649.34;;;6.90;87.52
7834;BME280;3962;42.696;23.354;2023-03-01T07:59:38;95648.31;;;6.69;87.56
7834;BME280;3962;42.696;23.354;2023-03-01T08:02:05;95644.63;;;6.71;88.10
7834;BME280;3962;42.696;23.354;2023-03-01T08:04:32;95641.34;;;6.68;87.87
7834;BME280;3962;42.696;23.354;2023-03-01T08:07:00;95652.28;;;6.63;87.49
7834;BME280;3962;42.696;23.354;2023-03-01T08:09:27;95648.59;;;6.77;87.67
7834;BME280;3962;42.696;23.354;2023-03-01T08:11:56;95645.84;;;6.78;87.46
7834;BME280;3962;42.696;23.354;2023-03-01T08:14:24;95649.31;;;6.79;87.22
7834;BME280;3962;42.696;23.354;2023-03-01T08:16:51;95651.59;;;6.83;86.64
7834;BME280;3962;42.696;23.354;2023-03-01T08:19:18;95644.69;;;6.93;86.66
7834;BME280;3962;42.696;23.354;2023-03-01T08:21:45;95639.38;;;6.93;87.13
7834;BME280;3962;42.696;23.354;2023-03-01T08:24:14;95638.53;;;7.03;85.64
7834;BME280;3962;42.696;23.354;2023-03-01T08:26:40;95641.78;;;7.07;85.67
7834;BME280;3962;42.696;23.354;2023-03-01T08:29:07;95645.31;;;7.18;85.99
7834;BME280;3962;42.696;23.354;2023-03-01T08:31:36;95640.63;;;7.22;85.92
7834;BME280;3962;42.696;23.354;2023-03-01T08:34:06;95638.44;;;7.05;84.46
7834;BME280;3962;42.696;23.354;2023-03-01T08:36:37;95642.66;;;6.97;85.46
7834;BME280;3962;42.696;23.354;2023-03-01T08:39:06;95642.66;;;7.07;85.33
7834;BME280;3962;42.696;23.354;2023-03-01T08:41:35;95634.16;;;7.26;84.39
7834;BME280;3962;42.696;23.354;2023-03-01T08:44:02;95640.38;;;7.47;84.02
7834;BME280;3962;42.696;23.354;2023-03-01T08:46:33;95638.00;;;7.44;83.43
7834;BME280;3962;42.696;23.354;2023-03-01T08:49:03;95644.97;;;7.45;82.79
7834;BME280;3962;42.696;23.354;2023-03-01T08:51:31;95642.09;;;7.48;82.52
7834;BME280;3962;42.696;23.354;2023-03-01T08:54:01;95645.09;;;7.54;81.83
7834;BME280;3962;42.696;23.354;2023-03-01T08:56:28;95632.00;;;7.64;81.12
7834;BME280;3962;42.696;23.354;2023-03-01T08:58:57;95657.00;;;7.82;80.56
7834;BME280;3962;42.696;23.354;2023-03-01T09:01:23;95641.72;;;7.63;80.85
7834;BME280;3962;42.696;23.354;2023-03-01T09:03:50;95644.38;;;7.63;81.68
7834;BME280;3962;42.696;23.354;2023-03-01T09:06:18;95649.06;;;7.60;80.73
7834;BME280;3962;42.696;23.354;2023-03-01T09:08:47;95638.47;;;7.82;79.81
7834;BME280;3962;42.696;23.354;2023-03-01T09:11:16;95629.44;;;7.62;79.89
7834;BME280;3962;42.696;23.354;2023-03-01T09:13:43;95633.41;;;7.90;79.45
7834;BME280;3962;42.696;23.354;2023-03-01T09:16:13;95634.63;;;7.75;79.06
7834;BME280;3962;42.696;23.354;2023-03-01T09:18:40;95649.31;;;7.79;80.29
7834;BME280;3962;42.696;23.354;2023-03-01T09:21:09;95633.91;;;7.73;79.92
7834;BME280;3962;42.696;23.354;2023-03-01T09:23:37;95636.78;;;7.59;80.86
7834;BME280;3962;42.696;23.354;2023-03-01T09:26:05;95634.16;;;7.59;80.87
7834;BME280;3962;42.696;23.354;2023-03-01T09:28:32;95637.16;;;7.76;80.69
7834;BME280;3962;42.696;23.354;2023-03-01T09:30:59;95637.63;;;7.70;80.37
7834;BME280;3962;42.696;23.354;2023-03-01T09:33:28;95636.91;;;7.57;80.36
7834;BME280;3962;42.696;23.354;2023-03-01T09:35:58;95635.34;;;7.66;81.43
7834;BME280;3962;42.696;23.354;2023-03-01T09:38:26;95636.81;;;7.48;81.32
7834;BME280;3962;42.696;23.354;2023-03-01T09:40:53;95630.91;;;7.44;82.03
7834;BME280;3962;42.696;23.354;2023-03-01T09:43:24;95628.00;;;7.69;82.58
7834;BME280;3962;42.696;23.354;2023-03-01T09:45:53;95631.38;;;7.60;82.32
7834;BME280;3962;42.696;23.354;2023-03-01T09:48:24;95625.69;;;7.76;81.44
7834;BME280;3962;42.696;23.354;2023-03-01T09:50:54;95619.69;;;7.63;80.98
7834;BME280;3962;42.696;23.354;2023-03-01T09:53:23;95613.91;;;7.80;80.81
7834;BME280;3962;42.696;23.354;2023-03-01T09:55:56;95613.28;;;7.87;79.62
7834;BME280;3962;42.696;23.354;2023-03-01T09:58:34;95613.66;;;7.83;78.63
7834;BME280;3962;42.696;23.354;2023-03-01T10:01:19;95606.19;;;7.77;78.83
7834;BME280;3962;42.696;23.354;2023-03-01T10:04:00;95600.75;;;7.89;77.76
7834;BME280;3962;42.696;23.354;2023-03-01T10:06:33;95601.03;;;7.75;78.32
7834;BME280;3962;42.696;23.354;2023-03-01T10:09:04;95601.00;;;7.86;78.31
7834;BME280;3962;42.696;23.354;2023-03-01T10:11:37;95601.13;;;7.85;78.88
7834;BME280;3962;42.696;23.354;2023-03-01T10:14:09;95605.22;;;7.89;78.08
7834;BME280;3962;42.696;23.354;2023-03-01T10:16:46;95607.03;;;7.88;78.19
7834;BME280;3962;42.696;23.354;2023-03-01T10:19:20;95600.84;;;7.99;78.75
7834;BME280;3962;42.696;23.354;2023-03-01T10:21:51;95601.53;;;8.23;78.37
7834;BME280;3962;42.696;23.354;2023-03-01T10:24:19;95597.81;;;8.14;77.57
7834;BME280;3962;42.696;23.354;2023-03-01T10:26:55;95590.16;;;8.00;77.31
7834;BME280;3962;42.696;23.354;2023-03-01T10:29:26;95585.22;;;7.96;77.67
7834;BME280;3962;42.696;23.354;2023-03-01T10:31:54;95571.59;;;8.00;78.43
7834;BME280;3962;42.696;23.354;2023-03-01T10:34:31;95578.69;;;8.00;77.85
7834;BME280;3962;42.696;23.354;2023-03-01T10:37:11;95577.50;;;8.04;77.86
7834;BME280;3962;42.696;23.354;2023-03-01T10:39:55;95579.06;;;8.06;77.50
7834;BME280;3962;42.696;23.354;2023-03-01T10:42:26;95585.53;;;8.24;76.63
7834;BME280;3962;42.696;23.354;2023-03-01T10:44:55;95563.09;;;8.17;76.90
7834;BME280;3962;42.696;23.354;2023-03-01T10:47:23;95567.00;;;8.02;76.38
7834;BME280;3962;42.696;23.354;2023-03-01T10:50:17;95572.03;;;8.05;76.97
7834;BME280;3962;42.696;23.354;2023-03-01T10:52:57;95576.34;;;8.17;76.61
7834;BME280;3962;42.696;23.354;2023-03-01T10:55:29;95562.09;;;8.29;76.52
7834;BME280;3962;42.696;23.354;2023-03-01T10:58:16;95566.94;;;8.56;75.47
7834;BME280;3962;42.696;23.354;2023-03-01T11:00:47;95567.13;;;8.43;75.17
7834;BME280;3962;42.696;23.354;2023-03-01T11:03:17;95570.41;;;8.36;75.68
7834;BME280;3962;42.696;23.354;2023-03-01T11:06:20;95573.16;;;8.66;75.17
7834;BME280;3962;42.696;23.354;2023-03-01T11:08:50;95568.75;;;8.76;74.67
7834;BME280;3962;42.696;23.354;2023-03-01T11:11:29;95565.41;;;8.94;74.05
7834;BME280;3962;42.696;23.354;2023-03-01T11:13:59;95570.06;;;8.61;74.75
7834;BME280;3962;42.696;23.354;2023-03-01T11:16:34;95579.22;;;8.57;75.35
7834;BME280;3962;42.696;23.354;2023-03-01T11:19:15;95570.81;;;8.31;75.84
7834;BME280;3962;42.696;23.354;2023-03-01T11:21:52;95568.53;;;8.16;76.75
7834;BME280;3962;42.696;23.354;2023-03-01T11:24:27;95569.50;;;8.15;78.23
7834;BME280;3962;42.696;23.354;2023-03-01T11:26:55;95565.88;;;8.27;78.07
7834;BME280;3962;42.696;23.354;2023-03-01T11:29:29;95564.56;;;8.10;77.79
7834;BME280;3962;42.696;23.354;2023-03-01T11:32:00;95561.28;;;8.18;77.91
7834;BME280;3962;42.696;23.354;2023-03-01T11:34:40;95562.50;;;8.14;77.91
7834;BME280;3962;42.696;23.354;2023-03-01T11:37:16;95561.03;;;8.32;78.45
7834;BME280;3962;42.696;23.354;2023-03-01T11:39:57;95563.50;;;8.44;77.34
7834;BME280;3962;42.696;23.354;2023-03-01T11:42:34;95554.72;;;8.44;77.78
7834;BME280;3962;42.696;23.354;2023-03-01T11:45:10;95545.78;;;8.65;77.40
7834;BME280;3962;42.696;23.354;2023-03-01T11:47:59;95538.78;;;8.85;75.50
7834;BME280;3962;42.696;23.354;2023-03-01T11:50:35;95533.78;;;8.91;75.70
7834;BME280;3962;42.696;23.354;2023-03-01T11:53:46;95529.41;;;9.01;75.41
7834;BME280;3962;42.696;23.354;2023-03-01T11:56:27;95525.84;;;8.71;75.83
7834;BME280;3962;42.696;23.354;2023-03-01T11:59:19;95512.97;;;8.87;75.75
7834;BME280;3962;42.696;23.354;2023-03-01T12:02:07;95525.47;;;8.55;75.64
7834;BME280;3962;42.696;23.354;2023-03-01T12:05:06;95523.66;;;8.35;77.23
7834;BME280;3962;42.696;23.354;2023-03-01T12:07:48;95522.88;;;8.23;77.63
7834;BME280;3962;42.696;23.354;2023-03-01T12:10:27;95525.88;;;8.50;78.25
7834;BME280;3962;42.696;23.354;2023-03-01T12:13:12;95518.25;;;8.77;76.63
7834;BME280;3962;42.696;23.354;2023-03-01T12:16:14;95517.19;;;8.69;76.77
7834;BME280;3962;42.696;23.354;2023-03-01T12:19:14;95512.56;;;8.91;76.17
7834;BME280;3962;42.696;23.354;2023-03-01T12:21:57;95522.53;;;8.99;75.70
7834;BME280;3962;42.696;23.354;2023-03-01T12:24:41;95520.03;;;8.77;76.36
7834;BME280;3962;42.696;23.354;2023-03-01T12:27:25;95513.44;;;8.71;77.38
7834;BME280;3962;42.696;23.354;2023-03-01T12:30:02;95508.53;;;8.46;76.90
7834;BME280;3962;42.696;23.354;2023-03-01T12:32:46;95504.66;;;8.30;78.01
7834;BME280;3962;42.696;23.354;2023-03-01T12:35:39;95510.66;;;8.32;78.46
7834;BME280;3962;42.696;23.354;2023-03-01T12:38:19;95508.78;;;8.23;78.13
7834;BME280;3962;42.696;23.354;2023-03-01T12:41:11;95498.97;;;8.34;78.30
7834;BME280;3962;42.696;23.354;2023-03-01T12:43:51;95485.56;;;8.56;78.01
7834;BME280;3962;42.696;23.354;2023-03-01T12:46:37;95483.63;;;8.58;77.03
7834;BME280;3962;42.696;23.354;2023-03-01T12:49:10;95486.47;;;8.46;77.38
7834;BME280;3962;42.696;23.354;2023-03-01T12:51:40;95491.78;;;8.46;77.46
7834;BME280;3962;42.696;23.354;2023-03-01T12:54:15;95497.56;;;8.51;77.98
7834;BME280;3962;42.696;23.354;2023-03-01T12:56:42;95501.22;;;8.39;77.94
7834;BME280;3962;42.696;23.354;2023-03-01T12:59:20;95492.63;;;8.46;77.69
7834;BME280;3962;42.696;23.354;2023-03-01T13:01:56;95485.97;;;8.31;78.22
7834;BME280;3962;42.696;23.354;2023-03-01T13:04:40;95495.22;;;8.37;78.37
7834;BME280;3962;42.696;23.354;2023-03-01T13:07:19;95498.44;;;8.40;77.97
7834;BME280;3962;42.696;23.354;2023-03-01T13:09:53;95497.91;;;8.26;78.60
7834;BME280;3962;42.696;23.354;2023-03-01T13:13:01;95485.78;;;8.12;79.64
7834;BME280;3962;42.696;23.354;2023-03-01T13:15:36;95489.53;;;8.10;80.68
7834;BME280;3962;42.696;23.354;2023-03-01T13:18:28;95505.13;;;8.35;80.11
7834;BME280;3962;42.696;23.354;2023-03-01T13:20:56;95493.97;;;8.41;79.27
7834;BME280;3962;42.696;23.354;2023-03-01T13:23:27;95495.22;;;8.37;79.17
7834;BME280;3962;42.696;23.354;2023-03-01T13:26:16;95495.72;;;8.51;78.95
7834;BME280;3962;42.696;23.354;2023-03-01T13:28:54;95490.94;;;8.45;78.88
7834;BME280;3962;42.696;23.354;2023-03-01T13:34:49;95505.16;;;8.44;79.10
7834;BME280;3962;42.696;23.354;2023-03-01T13:37:25;95494.25;;;8.38;78.67
7834;BME280;3962;42.696;23.354;2023-03-01T13:39:55;95508.53;;;8.46;78.91
7834;BME280;3962;42.696;23.354;2023-03-01T13:42:42;95501.09;;;8.40;80.19
7834;BME280;3962;42.696;23.354;2023-03-01T13:45:34;95498.97;;;8.34;79.96
7834;BME280;3962;42.696;23.354;2023-03-01T13:48:08;95496.97;;;8.27;80.70